Time,TemperatureF,DewpointF,PressureIn,WindDirection,WindDirectionDegrees,WindSpeedMPH,WindSpeedGustMPH,Humidity,HourlyPrecipIn,Conditions,Clouds,dailyrainin,SolarRadiationWatts/m^2,SoftwareType,DateUTC
2013-01-30 00:12:00,59.4,53.0,29.70,NNW,330,3.0,12.0,80,0.20,,,0.09,0,weatherlink.com 1.10,2013-01-30 06:12:00,
2013-01-30 00:52:00,55.9,51.0,29.71,West,272,0.0,6.0,83,0.90,,,0.80,0,weatherlink.com 1.10,2013-01-30 06:52:00,
2013-01-30 00:57:00,55.8,51.0,29.71,NE,34,0.0,6.0,83,0.89,,,0.84,0,weatherlink.com 1.10,2013-01-30 06:57:00,
2013-01-30 01:12:00,55.8,51.0,29.72,NE,34,0.0,1.0,84,0.81,,,0.91,0,weatherlink.com 1.10,2013-01-30 07:12:00,
2013-01-30 01:27:00,55.8,51.0,29.70,NE,35,0.0,2.0,84,0.64,,,0.99,0,weatherlink.com 1.10,2013-01-30 07:27:00,
2013-01-30 01:42:00,55.7,51.0,29.72,SE,128,0.0,1.0,84,0.33,,,1.02,0,weatherlink.com 1.10,2013-01-30 07:42:00,
2013-01-30 01:57:00,55.7,51.0,29.71,SE,127,0.0,2.0,84,0.19,,,1.03,0,weatherlink.com 1.10,2013-01-30 07:57:00,
2013-01-30 02:12:00,55.6,51.0,29.72,SE,130,0.0,0.0,84,0.10,,,1.03,0,weatherlink.com 1.10,2013-01-30 08:12:00,
2013-01-30 02:27:00,55.7,51.0,29.71,SE,129,0.0,1.0,84,0.04,,,1.03,0,weatherlink.com 1.10,2013-01-30 08:27:00,
2013-01-30 02:42:00,55.7,51.0,29.70,SE,129,0.0,0.0,84,0.01,,,1.03,0,weatherlink.com 1.10,2013-01-30 08:42:00,
2013-01-30 02:57:00,55.7,51.0,29.70,SE,129,0.0,0.0,84,0.00,,,1.03,0,weatherlink.com 1.10,2013-01-30 08:57:00,
2013-01-30 03:12:00,55.7,51.0,29.70,SE,129,0.0,2.0,84,0.00,,,1.03,0,weatherlink.com 1.10,2013-01-30 09:12:00,
2013-01-30 03:27:00,55.7,51.0,29.70,SE,130,0.0,1.0,84,0.00,,,1.03,0,weatherlink.com 1.10,2013-01-30 09:27:00,
2013-01-30 03:42:00,55.5,51.0,29.70,SE,130,0.0,2.0,84,0.00,,,1.03,0,weatherlink.com 1.10,2013-01-30 09:42:00,
2013-01-30 03:57:00,55.4,51.0,29.70,SSE,150,0.0,2.0,85,0.00,,,1.03,0,weatherlink.com 1.10,2013-01-30 09:57:00,
2013-01-30 04:12:00,55.6,51.0,29.69,SSE,148,0.0,2.0,85,0.00,,,1.03,0,weatherlink.com 1.10,2013-01-30 10:12:00,
2013-01-30 04:27:00,55.6,51.0,29.68,South,173,0.0,1.0,85,0.00,,,1.03,0,weatherlink.com 1.10,2013-01-30 10:27:00,
2013-01-30 04:42:00,55.5,51.0,29.69,SSW,203,1.0,4.0,85,0.00,,,1.03,0,weatherlink.com 1.10,2013-01-30 10:42:00,
2013-01-30 04:57:00,55.6,51.0,29.69,SW,227,1.0,4.0,85,0.00,,,1.03,0,weatherlink.com 1.10,2013-01-30 10:57:00,
2013-01-30 05:12:00,55.5,51.0,29.68,SW,227,1.0,2.0,85,0.00,,,1.03,0,weatherlink.com 1.10,2013-01-30 11:12:00,
2013-01-30 05:27:00,55.4,51.0,29.68,SW,229,1.0,4.0,85,0.00,,,1.03,0,weatherlink.com 1.10,2013-01-30 11:27:00,
2013-01-30 05:42:00,55.4,51.0,29.68,WSW,239,0.0,4.0,85,0.00,,,1.03,0,weatherlink.com 1.10,2013-01-30 11:42:00,
2013-01-30 05:57:00,55.1,51.0,29.69,WSW,254,1.0,6.0,85,0.00,,,1.03,0,weatherlink.com 1.10,2013-01-30 11:57:00,
2013-01-30 06:12:00,54.8,50.0,29.70,WSW,258,4.0,6.0,85,0.00,,,1.03,0,weatherlink.com 1.10,2013-01-30 12:12:00,
2013-01-30 06:27:00,53.8,49.0,29.71,WNW,300,1.0,8.0,84,0.00,,,1.03,0,weatherlink.com 1.10,2013-01-30 12:27:00,
2013-01-30 06:42:00,53.5,48.0,29.72,West,280,4.0,6.0,82,0.00,,,1.03,0,weatherlink.com 1.10,2013-01-30 12:42:00,
2013-01-30 06:58:00,53.3,47.0,29.73,SW,217,1.0,4.0,80,0.00,,,1.03,0,weatherlink.com 1.10,2013-01-30 12:58:00,
2013-01-30 07:12:00,53.3,47.0,29.73,West,261,6.0,10.0,78,0.00,,,1.03,5,weatherlink.com 1.10,2013-01-30 13:12:00,
2013-01-30 07:27:00,53.5,46.0,29.74,North,4,0.0,6.0,75,0.00,,,1.03,9,weatherlink.com 1.10,2013-01-30 13:27:00,
2013-01-30 07:43:00,53.2,45.0,29.75,WSW,258,1.0,6.0,73,0.00,,,1.03,12,weatherlink.com 1.10,2013-01-30 13:43:00,
2013-01-30 07:57:00,53.2,44.0,29.76,WSW,258,5.0,9.0,70,0.00,,,1.03,28,weatherlink.com 1.10,2013-01-30 13:57:00,
2013-01-30 08:12:00,53.3,44.0,29.76,WSW,257,1.0,5.0,71,0.00,,,1.03,49,weatherlink.com 1.10,2013-01-30 14:12:00,
2013-01-30 08:27:00,53.5,44.0,29.77,West,264,4.0,7.0,71,0.00,,,1.03,58,weatherlink.com 1.10,2013-01-30 14:27:00,
2013-01-30 08:42:00,53.6,44.0,29.77,WSW,255,5.0,7.0,69,0.00,,,1.03,44,weatherlink.com 1.10,2013-01-30 14:42:00,
2013-01-30 08:57:00,53.8,43.0,29.77,WSW,252,6.0,8.0,67,0.00,,,1.03,83,weatherlink.com 1.10,2013-01-30 14:57:00,
2013-01-30 09:13:00,54.4,42.0,29.77,West,270,4.0,11.0,63,0.00,,,1.03,111,weatherlink.com 1.10,2013-01-30 15:13:00,
2013-01-30 09:28:00,54.3,41.0,29.78,West,276,1.0,8.0,61,0.00,,,1.03,142,weatherlink.com 1.10,2013-01-30 15:28:00,
2013-01-30 09:43:00,54.0,38.0,29.79,West,274,8.0,13.0,56,0.00,,,1.03,121,weatherlink.com 1.10,2013-01-30 15:43:00,
2013-01-30 09:58:00,53.7,37.0,29.80,West,270,4.0,12.0,54,0.00,,,1.03,134,weatherlink.com 1.10,2013-01-30 15:58:00,
2013-01-30 10:13:00,53.5,37.0,29.81,WSW,244,2.0,11.0,54,0.00,,,1.03,104,weatherlink.com 1.10,2013-01-30 16:13:00,
2013-01-30 10:28:00,53.2,36.0,29.83,West,269,7.0,13.0,53,0.00,,,1.03,88,weatherlink.com 1.10,2013-01-30 16:28:00,
2013-01-30 10:43:00,52.8,36.0,29.83,NW,315,6.0,9.0,54,0.00,,,1.03,118,weatherlink.com 1.10,2013-01-30 16:43:00,
2013-01-30 10:58:00,52.9,37.0,29.84,North,4,6.0,7.0,55,0.00,,,1.03,120,weatherlink.com 1.10,2013-01-30 16:58:00,
2013-01-30 11:28:00,54.7,40.0,29.85,West,269,6.0,12.0,57,0.00,,,1.03,431,weatherlink.com 1.10,2013-01-30 17:28:00,
2013-01-30 11:43:00,54.4,38.0,29.85,West,269,5.0,14.0,55,0.00,,,1.03,369,weatherlink.com 1.10,2013-01-30 17:43:00,
2013-01-30 11:58:00,54.0,38.0,29.85,North,4,5.0,13.0,56,0.00,,,1.03,343,weatherlink.com 1.10,2013-01-30 17:58:00,
2013-01-30 12:13:00,54.7,40.0,29.86,WNW,296,4.0,9.0,59,0.00,,,1.03,863,weatherlink.com 1.10,2013-01-30 18:13:00,
2013-01-30 12:28:00,53.9,38.0,29.86,West,281,4.0,14.0,55,0.00,,,1.03,200,weatherlink.com 1.10,2013-01-30 18:28:00,
2013-01-30 12:43:00,55.0,38.0,29.86,West,278,5.0,15.0,53,0.00,,,1.03,51,weatherlink.com 1.10,2013-01-30 18:43:00,
2013-01-30 12:58:00,51.5,37.0,29.88,North,4,3.0,16.0,58,0.00,,,1.03,322,weatherlink.com 1.10,2013-01-30 18:58:00,
2013-01-30 13:14:00,52.1,38.0,29.90,WSW,248,7.0,14.0,58,0.00,,,1.03,209,weatherlink.com 1.10,2013-01-30 19:14:00,
2013-01-30 13:28:00,51.2,37.0,29.91,WNW,296,16.0,18.0,59,0.00,,,1.03,241,weatherlink.com 1.10,2013-01-30 19:28:00,
2013-01-30 13:44:00,51.4,35.0,29.91,WNW,293,4.0,12.0,54,0.00,,,1.03,283,weatherlink.com 1.10,2013-01-30 19:44:00,
2013-01-30 13:59:00,52.4,36.0,29.91,NW,325,5.0,14.0,54,0.00,,,1.03,195,weatherlink.com 1.10,2013-01-30 19:59:00,
2013-01-30 14:14:00,50.8,36.0,29.92,North,4,4.0,13.0,58,0.00,,,1.03,216,weatherlink.com 1.10,2013-01-30 20:14:00,
2013-01-30 14:29:00,50.6,36.0,29.93,WNW,303,6.0,11.0,57,0.00,,,1.03,700,weatherlink.com 1.10,2013-01-30 20:29:00,
2013-01-30 14:44:00,51.2,35.0,29.95,WNW,287,9.0,21.0,54,0.00,,,1.03,654,weatherlink.com 1.10,2013-01-30 20:44:00,
2013-01-30 14:59:00,50.3,33.0,29.95,WNW,302,6.0,15.0,52,0.00,,,1.03,499,weatherlink.com 1.10,2013-01-30 20:59:00,
2013-01-30 15:14:00,51.7,34.0,29.96,NW,306,4.0,14.0,51,0.00,,,1.03,457,weatherlink.com 1.10,2013-01-30 21:14:00,
2013-01-30 15:29:00,50.8,33.0,29.96,WNW,302,4.0,19.0,50,0.00,,,1.03,434,weatherlink.com 1.10,2013-01-30 21:29:00,
2013-01-30 15:44:00,51.0,33.0,29.98,NW,312,5.0,8.0,50,0.00,,,1.03,369,weatherlink.com 1.10,2013-01-30 21:44:00,
2013-01-30 15:59:00,50.2,31.0,29.99,North,4,5.0,11.0,48,0.00,,,1.03,302,weatherlink.com 1.10,2013-01-30 21:59:00,
2013-01-30 16:14:00,50.4,33.0,30.00,North,4,2.0,8.0,51,0.00,,,1.03,253,weatherlink.com 1.10,2013-01-30 22:14:00,
2013-01-30 16:29:00,50.0,32.0,30.00,North,4,6.0,10.0,51,0.00,,,1.03,151,weatherlink.com 1.10,2013-01-30 22:29:00,
2013-01-30 16:44:00,49.8,32.0,30.00,NNW,327,5.0,10.0,51,0.00,,,1.03,67,weatherlink.com 1.10,2013-01-30 22:44:00,
2013-01-30 16:59:00,49.5,32.0,30.01,NW,304,3.0,4.0,52,0.00,,,1.03,42,weatherlink.com 1.10,2013-01-30 22:59:00,
2013-01-30 17:14:00,48.9,32.0,30.01,North,352,0.0,5.0,52,0.00,,,1.03,21,weatherlink.com 1.10,2013-01-30 23:14:00,
2013-01-30 17:29:00,48.1,32.0,30.02,North,352,1.0,5.0,54,0.00,,,1.03,12,weatherlink.com 1.10,2013-01-30 23:29:00,
2013-01-30 17:44:00,47.4,32.0,30.03,WNW,298,0.0,4.0,56,0.00,,,1.03,0,weatherlink.com 1.10,2013-01-30 23:44:00,
2013-01-30 17:59:00,46.5,33.0,30.05,North,4,0.0,6.0,59,0.00,,,1.03,0,weatherlink.com 1.10,2013-01-30 23:59:00,
2013-01-30 18:14:00,46.0,32.0,30.05,North,4,2.0,3.0,58,0.00,,,1.03,0,weatherlink.com 1.10,2013-01-31 00:14:00,
2013-01-30 18:29:00,45.9,31.0,30.07,North,351,0.0,5.0,57,0.00,,,1.03,0,weatherlink.com 1.10,2013-01-31 00:29:00,
2013-01-30 18:44:00,45.2,31.0,30.08,North,4,0.0,4.0,59,0.00,,,1.03,0,weatherlink.com 1.10,2013-01-31 00:44:00,
2013-01-30 18:59:00,44.1,33.0,30.09,North,4,0.0,1.0,65,0.00,,,1.03,0,weatherlink.com 1.10,2013-01-31 00:59:00,
2013-01-30 19:14:00,42.8,33.0,30.10,North,4,0.0,2.0,68,0.00,,,1.03,0,weatherlink.com 1.10,2013-01-31 01:14:00,
2013-01-30 19:29:00,42.9,32.0,30.10,WNW,300,0.0,1.0,65,0.00,,,1.03,0,weatherlink.com 1.10,2013-01-31 01:29:00,
2013-01-30 19:44:00,42.6,33.0,30.10,WNW,300,0.0,1.0,68,0.00,,,1.03,0,weatherlink.com 1.10,2013-01-31 01:44:00,
2013-01-30 19:59:00,41.8,32.0,30.10,NNW,338,0.0,5.0,69,0.00,,,1.03,0,weatherlink.com 1.10,2013-01-31 01:59:00,
2013-01-30 20:16:00,41.6,32.0,30.10,WSW,252,0.0,2.0,69,0.00,,,1.03,0,weatherlink.com 1.10,2013-01-31 02:16:00,
2013-01-30 20:29:00,41.1,32.0,30.11,WSW,252,0.0,1.0,71,0.00,,,1.03,0,weatherlink.com 1.10,2013-01-31 02:29:00,
2013-01-30 20:44:00,40.5,32.0,30.11,North,4,0.0,0.0,71,0.00,,,1.03,0,weatherlink.com 1.10,2013-01-31 02:44:00,
2013-01-30 20:59:00,39.9,32.0,30.11,WSW,252,0.0,0.0,72,0.00,,,1.03,0,weatherlink.com 1.10,2013-01-31 02:59:00,
2013-01-30 21:15:00,39.3,32.0,30.13,North,4,0.0,0.0,75,0.00,,,1.03,0,weatherlink.com 1.10,2013-01-31 03:15:00,
2013-01-30 21:30:00,38.4,32.0,30.13,WSW,251,0.0,0.0,77,0.00,,,1.03,0,weatherlink.com 1.10,2013-01-31 03:30:00,
2013-01-30 21:45:00,37.4,31.0,30.14,North,4,0.0,0.0,78,0.00,,,1.03,0,weatherlink.com 1.10,2013-01-31 03:45:00,
2013-01-30 22:00:00,36.3,30.0,30.14,WSW,252,0.0,0.0,78,0.00,,,1.03,0,weatherlink.com 1.10,2013-01-31 04:00:00,
2013-01-30 22:15:00,35.5,30.0,30.15,WSW,252,0.0,0.0,79,0.00,,,1.03,0,weatherlink.com 1.10,2013-01-31 04:15:00,
2013-01-30 22:30:00,34.8,29.0,30.15,WSW,251,0.0,0.0,80,0.00,,,1.03,0,weatherlink.com 1.10,2013-01-31 04:30:00,
2013-01-30 22:45:00,34.4,29.0,30.15,WSW,253,0.0,2.0,81,0.00,,,1.03,0,weatherlink.com 1.10,2013-01-31 04:45:00,
2013-01-30 23:00:00,33.7,28.0,30.16,North,4,0.0,0.0,81,0.00,,,1.03,0,weatherlink.com 1.10,2013-01-31 05:00:00,
2013-01-30 23:15:00,33.4,29.0,30.17,WSW,251,0.0,0.0,82,0.00,,,1.03,0,weatherlink.com 1.10,2013-01-31 05:15:00,
2013-01-30 23:30:00,33.0,28.0,30.17,WSW,251,0.0,0.0,82,0.00,,,1.03,0,weatherlink.com 1.10,2013-01-31 05:30:00,
2013-01-30 23:45:00,32.7,28.0,30.18,WSW,252,0.0,0.0,82,0.00,,,1.03,0,weatherlink.com 1.10,2013-01-31 05:45:00,